createdAt,value
2019-03-31T00:00:01.399Z,19.18
2019-03-31T00:06:07.067Z,19.92
2019-03-31T00:11:51.416Z,16.28
2019-03-31T00:17:46.424Z,17.55
2019-03-31T00:23:41.425Z,16.63
2019-03-31T00:29:36.451Z,15.47
2019-03-31T00:35:31.466Z,15.16
2019-03-31T00:41:26.754Z,14.25
2019-03-31T00:47:21.489Z,14.96
2019-03-31T00:53:16.552Z,13.2
2019-03-31T00:59:11.423Z,13.33
2019-03-31T01:05:06.441Z,15.13
2019-03-31T01:11:01.461Z,15.33
2019-03-31T01:16:56.455Z,13.01
2019-03-31T01:22:51.472Z,12.93
2019-03-31T01:28:46.520Z,12.99
2019-03-31T01:34:41.491Z,13.25
2019-03-31T01:40:36.455Z,13.4
2019-03-31T01:46:31.490Z,11.07
2019-03-31T01:52:26.489Z,14.45
2019-03-31T01:58:21.470Z,14.43
2019-03-31T02:04:16.508Z,14.05
2019-03-31T02:10:11.511Z,12.45
2019-03-31T02:16:06.496Z,11.13
2019-03-31T02:22:01.509Z,10.94
2019-03-31T02:27:56.500Z,9.77
2019-03-31T02:33:51.508Z,11.03
2019-03-31T02:39:46.502Z,8.76
2019-03-31T02:45:41.543Z,13.81
2019-03-31T02:51:36.515Z,10.95
2019-03-31T02:57:31.583Z,13.47
2019-03-31T03:03:26.837Z,13.37
2019-03-31T03:09:21.562Z,14.88
2019-03-31T03:15:16.542Z,11.92
2019-03-31T03:21:11.566Z,13.53
2019-03-31T03:27:06.538Z,13.85
2019-03-31T03:33:14.265Z,11.2
2019-03-31T03:38:56.561Z,10.76
2019-03-31T03:44:51.545Z,12.12
2019-03-31T03:50:46.562Z,11.5
2019-03-31T03:56:41.538Z,11.75
2019-03-31T04:02:36.559Z,11.83
2019-03-31T04:08:31.589Z,18.69
2019-03-31T04:14:26.590Z,12.85
2019-03-31T04:20:21.591Z,12.22
2019-03-31T04:26:16.630Z,13.4
2019-03-31T04:32:11.575Z,13.47
2019-03-31T04:38:06.588Z,14.38
2019-03-31T04:44:01.579Z,16.15
2019-03-31T04:49:56.633Z,14.56
2019-03-31T04:55:51.599Z,11.5
2019-03-31T05:01:46.603Z,11.81
2019-03-31T05:07:41.620Z,13.21
2019-03-31T05:13:36.634Z,13.53
2019-03-31T05:19:31.647Z,16.22
2019-03-31T05:25:26.590Z,12.15
2019-03-31T05:31:21.630Z,12.66
2019-03-31T05:37:16.655Z,15.52
2019-03-31T05:43:11.620Z,13.99
2019-03-31T05:49:06.630Z,13.43
2019-03-31T06:00:56.644Z,13.19
2019-03-31T06:00:56.669Z,11.5
2019-03-31T06:06:51.630Z,14.51
2019-03-31T06:12:46.636Z,12.2
2019-03-31T06:18:41.631Z,10.23
2019-03-31T06:24:36.648Z,13.04
2019-03-31T06:30:31.948Z,11.64
2019-03-31T06:36:26.947Z,15.43
2019-03-31T06:42:21.655Z,15.31
2019-03-31T06:54:11.706Z,17.98
2019-03-31T06:54:11.724Z,19.94
2019-03-31T07:00:06.682Z,19.69
2019-03-31T07:06:01.668Z,20.43
2019-03-31T07:11:56.663Z,31.34
2019-03-31T07:17:51.673Z,27.03
2019-03-31T07:23:46.689Z,24.47
2019-03-31T07:29:41.685Z,24.56
2019-03-31T07:35:38.912Z,34.88
2019-03-31T07:47:26.777Z,32.71
2019-03-31T07:47:26.845Z,30.83
2019-03-31T07:53:21.732Z,27.67
2019-03-31T07:59:16.723Z,24.22
2019-03-31T08:05:11.707Z,23.16
2019-03-31T08:11:06.794Z,24.19
2019-03-31T08:17:01.723Z,22.77
2019-03-31T08:22:57.203Z,24.48
2019-03-31T08:28:51.696Z,22.93
2019-03-31T08:40:41.711Z,25.29
2019-03-31T08:40:41.763Z,25.55
2019-03-31T08:46:36.741Z,32.3
2019-03-31T08:52:31.776Z,20.34
2019-03-31T08:58:27.034Z,24.77
2019-03-31T09:04:21.729Z,23.44
2019-03-31T09:10:16.741Z,21.93
2019-03-31T09:16:11.800Z,23.09
2019-03-31T09:22:06.747Z,20.24
2019-03-31T09:33:56.783Z,19.58
2019-03-31T09:33:56.835Z,19.27
2019-03-31T09:39:51.821Z,14.36
2019-03-31T09:45:46.804Z,18.5
2019-03-31T09:51:41.821Z,18.67
2019-03-31T09:57:36.771Z,18.18
2019-03-31T10:03:31.782Z,22.5
2019-03-31T10:09:27.082Z,18.73
2019-03-31T10:15:21.815Z,20.15
2019-03-31T10:27:11.810Z,18.4
2019-03-31T10:27:11.874Z,17.69
2019-03-31T10:33:06.808Z,20.93
2019-03-31T10:39:01.869Z,17.67
2019-03-31T10:44:56.844Z,19.42
2019-03-31T10:50:51.818Z,16.87
2019-03-31T10:56:46.798Z,17.5
2019-03-31T11:02:41.806Z,23.34
2019-03-31T11:08:36.805Z,13.83
2019-03-31T11:20:27.152Z,18.84
2019-03-31T11:20:27.184Z,19.5
2019-03-31T11:26:21.820Z,18.24
2019-03-31T11:32:16.824Z,16.44
2019-03-31T11:38:11.856Z,12.12
2019-03-31T11:44:06.835Z,11.02
2019-03-31T11:50:01.823Z,11.76
2019-03-31T11:55:56.966Z,11.99
2019-03-31T12:01:51.849Z,9.04
2019-03-31T12:13:41.850Z,9.16
2019-03-31T12:13:41.909Z,8.12
2019-03-31T12:19:36.874Z,7.49
2019-03-31T12:25:31.870Z,9
2019-03-31T12:31:27.159Z,5.88
2019-03-31T12:37:21.887Z,5.41
2019-03-31T12:43:16.875Z,5.13
2019-03-31T12:49:11.866Z,6.53
2019-03-31T12:55:06.860Z,7.9
2019-03-31T13:01:01.917Z,3.86
2019-03-31T13:06:56.903Z,4.46
2019-03-31T13:12:51.919Z,4.28
2019-03-31T13:18:46.947Z,4.93
2019-03-31T13:24:41.904Z,5.79
2019-03-31T13:30:36.904Z,4.28
2019-03-31T13:36:31.897Z,6.97
2019-03-31T13:42:26.905Z,5.96
2019-03-31T13:48:22.088Z,6.69
2019-03-31T13:54:16.915Z,5.9
2019-03-31T14:00:11.917Z,5.11
2019-03-31T14:06:06.939Z,5.14
2019-03-31T14:12:01.976Z,5.16
2019-03-31T14:17:56.920Z,4.98
2019-03-31T14:23:51.922Z,3.41
2019-03-31T14:29:46.942Z,3.52
2019-03-31T14:35:41.931Z,4.83
2019-03-31T14:41:36.960Z,5.48
2019-03-31T14:47:31.959Z,9.08
2019-03-31T15:02:07.423Z,3.8
2019-03-31T15:08:02.372Z,4.79
2019-03-31T15:13:57.347Z,5.37
2019-03-31T15:19:52.331Z,3.86
2019-03-31T15:25:47.343Z,4.6
2019-03-31T15:31:42.337Z,5.5
2019-03-31T15:37:37.354Z,3.6
2019-03-31T15:43:32.399Z,5.86
2019-03-31T15:49:27.639Z,4.26
2019-03-31T16:01:17.363Z,4.9
2019-03-31T16:01:17.396Z,4.6
2019-03-31T16:07:12.396Z,4.47
2019-03-31T16:13:07.363Z,4
2019-03-31T16:19:02.404Z,4.61
2019-03-31T16:24:57.405Z,4.79
2019-03-31T16:30:52.375Z,5.69
2019-03-31T16:36:47.412Z,5.52
2019-03-31T16:42:42.401Z,4.71
2019-03-31T16:54:32.419Z,4.36
2019-03-31T16:54:32.485Z,4.09
2019-03-31T17:00:27.702Z,4.13
2019-03-31T17:06:22.495Z,5.5
2019-03-31T17:12:17.470Z,3.49
2019-03-31T17:18:12.437Z,5.14
2019-03-31T17:24:07.457Z,6.03
2019-03-31T17:30:02.409Z,9.14
2019-03-31T17:35:57.445Z,10.92
2019-03-31T17:41:52.431Z,8.43
2019-03-31T17:47:47.440Z,10.43
2019-03-31T17:53:42.472Z,8.78
2019-03-31T17:59:37.536Z,14.39
2019-03-31T18:05:32.745Z,12.63
2019-03-31T18:11:27.486Z,9.96
2019-03-31T18:17:22.465Z,8.67
2019-03-31T18:23:17.462Z,10.2
2019-03-31T18:29:12.475Z,11.07
2019-03-31T18:35:07.471Z,13.16
2019-03-31T18:41:03.750Z,15.81
2019-03-31T18:46:57.474Z,18.2
2019-03-31T18:52:52.467Z,18.15
2019-03-31T18:58:47.466Z,14.59
2019-03-31T19:04:42.486Z,15.46
2019-03-31T19:10:48.632Z,15.06
2019-03-31T19:16:32.486Z,10.54
2019-03-31T19:22:27.557Z,12.67
2019-03-31T19:28:22.601Z,11.67
2019-03-31T19:34:17.541Z,15.04
2019-03-31T19:40:12.588Z,27.21
2019-03-31T19:46:07.512Z,10
2019-03-31T19:52:06.105Z,12.12
2019-03-31T19:58:01.691Z,11.46
2019-03-31T20:03:52.540Z,12.44
2019-03-31T20:09:47.510Z,10.79
2019-03-31T20:15:42.566Z,12.64
2019-03-31T20:21:37.661Z,12.79
2019-03-31T20:27:32.890Z,12.17
2019-03-31T20:33:27.551Z,10.4
2019-03-31T20:39:22.599Z,13.3
2019-03-31T20:45:17.614Z,11.16
2019-03-31T20:51:12.539Z,8.94
2019-03-31T20:57:07.554Z,12.92
2019-03-31T21:03:02.586Z,9.92
2019-03-31T21:08:57.545Z,13.51
2019-03-31T21:14:52.595Z,15.29
2019-03-31T21:20:47.635Z,14.37
2019-03-31T21:26:42.584Z,11.99
2019-03-31T21:32:37.593Z,21.85
2019-03-31T21:38:32.615Z,17.32
2019-03-31T21:44:27.580Z,21.57
2019-03-31T21:50:22.572Z,33.73
2019-03-31T21:56:17.613Z,27.08
2019-03-31T22:02:12.604Z,33.67
2019-03-31T22:08:07.617Z,41.75
2019-03-31T22:19:57.619Z,34.98
2019-03-31T22:19:57.640Z,43.46
2019-03-31T22:25:52.720Z,47.15
2019-03-31T22:31:47.632Z,46.63
2019-03-31T22:37:42.608Z,44.29
2019-03-31T22:43:37.622Z,32.49
2019-03-31T22:49:32.618Z,33.47
2019-03-31T22:55:27.613Z,28.53
2019-03-31T23:01:22.656Z,23.62
2019-03-31T23:13:12.642Z,19.7
2019-03-31T23:13:12.682Z,18.13
2019-03-31T23:19:07.641Z,11.95
2019-03-31T23:25:02.684Z,11.59
2019-03-31T23:30:57.709Z,11.66
2019-03-31T23:36:52.656Z,9.45
2019-03-31T23:42:47.660Z,7.8
2019-03-31T23:48:42.654Z,10.02
2019-03-31T23:54:37.935Z,10.2
